Time;durP1;ratioP1;P1;durP2;ratioP2;P2;SDS_P1;SDS_P2;PMS_P1;PMS_P2;Temp;Humidity;BMP_temperature;BMP_pressure;BME280_temperature;BME280_humidity;BME280_pressure;Samples;Min_cycle;Max_cycle;Signal;HPM_P1;HPM_P2
2022/01/25 00:26:00;;;;;;;6.63;2.42;;;;;;;26.81;28.30;97995.91;4922610;28;20117;-61
2022/01/25 00:33:27;;;;;;;4.40;2.50;;;;;;;26.75;28.46;97981.22;4924762;28;20082;-59
2022/01/25 00:35:53;;;;;;;5.43;2.63;;;;;;;26.73;28.51;97985.66;4919512;28;20442;-59
2022/01/25 00:38:18;;;;;;;3.63;2.50;;;;;;;26.71;28.61;97987.50;4920101;28;20027;-61
2022/01/25 00:40:44;;;;;;;5.03;2.72;;;;;;;26.69;28.39;97978.84;4920252;28;20035;-59
2022/01/25 00:43:09;;;;;;;4.25;2.70;;;;;;;26.68;28.42;97971.84;4917724;28;20039;-62
2022/01/25 00:45:34;;;;;;;4.70;2.58;;;;;;;26.65;28.51;97974.63;4938330;28;20027;-59
2022/01/25 00:48:03;;;;;;;3.97;2.58;;;;;;;26.64;28.54;97978.13;4917887;28;20036;-61
2022/01/25 00:50:36;;;;;;;5.03;2.88;;;;;;;26.63;28.50;97974.66;4919154;28;20028;-59
2022/01/25 00:55:27;;;;;;;5.90;2.70;;;;;;;26.60;28.59;97980.91;4931417;28;20689;-60
2022/01/25 00:57:52;;;;;;;7.57;2.90;;;;;;;26.59;28.66;97980.94;4920949;28;20039;-60
2022/01/25 01:00:18;;;;;;;5.03;2.47;;;;;;;26.57;28.70;97980.13;4922392;28;20027;-60
2022/01/25 01:02:43;;;;;;;4.47;2.40;;;;;;;26.57;28.63;97982.75;4921892;28;20043;-61
2022/01/25 01:05:09;;;;;;;4.13;2.42;;;;;;;26.55;28.59;97977.56;4924342;28;20036;-62
2022/01/25 01:07:35;;;;;;;3.67;2.28;;;;;;;26.55;28.55;97984.59;4926873;28;21191;-61
2022/01/25 01:10:01;;;;;;;4.13;2.63;;;;;;;26.55;28.61;97993.34;4921244;28;20031;-60
2022/01/25 01:29:02;;;;;;;;;;;;;;;;;;;;;
2022/01/25 01:31:20;;;;;;;3.05;2.30;;;;;;;26.43;28.62;97996.44;4919277;28;20097;-60
2022/01/25 01:40:09;;;;;;;4.00;2.40;;;;;;;26.42;28.71;97989.44;4918263;28;20019;-60
2022/01/25 01:42:09;;;;;;;3.40;2.20;;;;;;;26.39;28.65;97982.53;4921084;28;22199;-60
2022/01/25 01:45:05;;;;;;;4.25;2.65;;;;;;;26.40;28.49;97988.66;4915284;28;20055;-59
2022/01/25 01:47:37;;;;;;;5.63;2.15;;;;;;;26.40;28.59;97986.03;4912654;28;20042;-60
2022/01/25 01:50:08;;;;;;;4.10;2.28;;;;;;;26.38;28.67;97990.50;4915808;28;20039;-60
2022/01/25 01:52:34;;;;;;;3.58;1.95;;;;;;;26.38;28.67;97990.50;4931261;28;20747;-60
2022/01/25 01:54:59;;;;;;;3.83;2.40;;;;;;;26.37;28.72;97996.66;4915586;28;20043;-60
2022/01/25 01:57:25;;;;;;;3.67;2.00;;;;;;;26.35;28.60;97991.44;4916571;28;20054;-60
2022/01/25 01:59:52;;;;;;;2.88;2.00;;;;;;;26.36;28.64;97995.81;4921202;28;20030;-60
2022/01/25 02:02:18;;;;;;;3.13;2.03;;;;;;;26.35;28.62;97992.31;4902260;28;20043;-61
2022/01/25 02:04:43;;;;;;;5.30;2.05;;;;;;;26.35;28.70;97992.31;4895286;28;20045;-60
2022/01/25 02:07:08;;;;;;;3.30;2.00;;;;;;;26.34;28.69;97982.72;4900122;28;20035;-61
2022/01/25 02:09:34;;;;;;;6.18;2.15;;;;;;;26.34;28.70;97979.22;4896505;28;21294;-61
2022/01/25 02:11:59;;;;;;;2.70;2.08;;;;;;;26.34;28.74;97980.09;4903361;28;20063;-62
2022/01/25 02:14:25;;;;;;;3.70;1.90;;;;;;;26.32;28.56;97981.06;4905542;29;20899;-61
2022/01/25 02:24:44;;;;;;;2.95;1.95;;;;;;;26.29;28.68;97976.78;4916566;28;20057;-60
2022/01/25 02:27:09;;;;;;;2.53;1.80;;;;;;;26.29;28.63;97976.78;4920411;28;20031;-62
2022/01/25 02:29:35;;;;;;;2.72;1.90;;;;;;;26.28;28.84;97972.41;4920900;28;20054;-60
2022/01/25 02:32:00;;;;;;;3.35;1.75;;;;;;;26.27;28.78;97975.97;4922296;28;20039;-60
2022/01/25 02:34:26;;;;;;;3.80;2.13;;;;;;;26.28;28.66;97980.28;4914341;28;20055;-60
2022/01/25 02:36:57;;;;;;;2.47;1.70;;;;;;;26.27;28.63;97981.22;4918085;28;20040;-61
2022/01/25 02:39:23;;;;;;;2.28;1.58;;;;;;;26.26;28.74;97984.75;4936619;28;20113;-60
2022/01/25 02:41:49;;;;;;;2.30;1.77;;;;;;;26.26;28.61;97982.13;4922497;28;20039;-61
2022/01/25 02:44:23;;;;;;;2.83;2.05;;;;;;;26.25;28.63;97977.78;4915066;28;20714;-60
2022/01/25 02:49:16;;;;;;;2.78;1.83;;;;;;;26.24;28.66;97983.94;4918358;28;20759;-60
2022/01/25 02:51:46;;;;;;;2.00;1.63;;;;;;;26.23;28.72;97971.69;4925666;28;20764;-61
2022/01/25 02:54:12;;;;;;;2.53;1.60;;;;;;;26.23;28.65;97976.94;4921940;28;20035;-61
2022/01/25 02:56:37;;;;;;;2.30;1.58;;;;;;;26.21;28.68;97970.91;4921370;28;23195;-61
2022/01/25 02:59:04;;;;;;;3.25;1.80;;;;;;;26.23;28.64;97976.94;4920606;28;20144;-60
2022/01/25 03:01:29;;;;;;;2.13;1.40;;;;;;;26.21;28.63;97969.13;4920325;28;20043;-61
2022/01/25 03:03:55;;;;;;;2.30;1.70;;;;;;;26.21;28.60;97969.13;4916525;28;20031;-61
2022/01/25 03:06:21;;;;;;;7.00;3.67;;;;;;;26.19;28.38;97965.69;4920181;28;20036;-61
2022/01/25 03:08:47;;;;;;;3.53;2.40;;;;;;;26.17;28.57;97970.16;4934798;28;20043;-60
2022/01/25 03:11:13;;;;;;;2.15;1.92;;;;;;;26.17;28.57;97966.66;4919919;28;20170;-62
2022/01/25 03:13:49;;;;;;;2.42;2.00;;;;;;;26.16;28.64;97964.97;4919648;28;20035;-60
2022/01/25 03:16:32;;;;;;;3.83;2.30;;;;;;;26.16;28.62;97959.72;4918398;28;20066;-60
2022/01/25 03:19:01;;;;;;;2.80;1.65;;;;;;;26.14;28.69;97958.88;4921729;28;20019;-59
2022/01/25 03:23:52;;;;;;;4.97;1.60;;;;;;;26.14;28.55;97958.88;4907323;29;20032;-59
2022/01/25 03:26:18;;;;;;;2.80;1.75;;;;;;;26.10;28.69;97951.13;4924097;29;20028;-59
2022/01/25 03:28:43;;;;;;;3.60;1.80;;;;;;;26.14;28.66;97958.88;4925112;28;20043;-59
2022/01/25 03:31:09;;;;;;;5.00;1.60;;;;;;;26.12;28.65;97958.09;4914825;28;20066;-59
2022/01/25 03:33:34;;;;;;;3.38;1.98;;;;;;;26.13;28.66;97951.94;4918954;28;20215;-59
2022/01/25 03:36:00;;;;;;;2.38;1.73;;;;;;;26.12;28.61;97948.44;4919593;28;20149;-59
2022/01/25 03:38:25;;;;;;;4.75;2.13;;;;;;;26.12;28.61;97952.84;4924925;28;20043;-60
2022/01/25 03:40:50;;;;;;;2.50;1.85;;;;;;;26.10;28.68;97956.38;4938509;28;20027;-60
2022/01/25 03:43:18;;;;;;;2.97;1.70;;;;;;;26.10;28.57;97966.03;4919864;28;20031;-58
2022/01/25 03:45:56;;;;;;;2.60;1.60;;;;;;;26.11;28.68;97967.75;4922759;28;20031;-60
2022/01/25 03:50:48;;;;;;;4.22;1.65;;;;;;;26.09;28.62;97959.91;4922399;28;20028;-60
2022/01/25 03:53:14;;;;;;;2.75;1.60;;;;;;;26.09;28.67;97965.16;4925641;29;20693;-59
2022/01/25 03:55:40;;;;;;;2.42;1.55;;;;;;;26.10;28.74;97960.78;4919977;28;20038;-60
2022/01/25 03:58:06;;;;;;;3.00;1.70;;;;;;;26.08;28.65;97960.84;4935255;28;20031;-61
2022/01/25 04:00:31;;;;;;;4.18;1.63;;;;;;;26.09;28.58;97969.59;4925572;28;20094;-61
2022/01/25 04:03:12;;;;;;;2.40;1.50;;;;;;;26.07;28.62;97963.50;4923851;28;20038;-59
2022/01/25 04:08:03;;;;;;;1.60;1.40;;;;;;;26.08;28.65;97962.59;4936634;28;20031;-60
2022/01/25 04:10:29;;;;;;;2.45;1.60;;;;;;;26.06;28.58;97949.53;4921930;28;20115;-59
2022/01/25 04:12:54;;;;;;;2.20;1.52;;;;;;;26.06;28.64;97949.53;4926632;28;20786;-61
2022/01/25 04:15:20;;;;;;;3.38;1.67;;;;;;;26.03;28.61;97948.78;4922697;28;20059;-59
2022/01/25 04:17:50;;;;;;;2.88;1.52;;;;;;;26.05;28.58;97946.97;4922453;28;20035;-60
2022/01/25 04:25:25;;;;;;;1.65;1.50;;;;;;;26.04;28.55;97943.47;4921292;28;20050;-60
2022/01/25 04:27:50;;;;;;;2.28;1.60;;;;;;;26.03;28.55;97939.13;4922650;28;20024;-63
2022/01/25 04:30:16;;;;;;;2.67;1.30;;;;;;;26.03;28.60;97941.75;4923097;28;20036;-61
2022/01/25 04:32:48;;;;;;;1.75;1.42;;;;;;;26.02;28.63;97932.16;4922937;28;20039;-61
2022/01/25 04:55:10;;;;;;;1.50;1.00;;;;;;;25.97;28.81;97913.06;4923267;29;20028;-60
2022/01/25 04:59:45;;;;;;;2.30;1.48;;;;;;;25.96;28.71;97911.38;4934202;28;20086;-60
2022/01/25 05:02:16;;;;;;;1.77;1.30;;;;;;;25.96;28.76;97911.38;4919142;28;20030;-60
2022/01/25 05:04:51;;;;;;;2.50;1.45;;;;;;;25.96;28.55;97906.97;4936914;28;20097;-61
2022/01/25 05:07:37;;;;;;;1.90;1.30;;;;;;;25.95;28.78;97907.91;4919671;28;20071;-61
2022/01/25 05:10:04;;;;;;;1.55;1.40;;;;;;;25.96;28.76;97903.47;4934441;28;20122;-59
2022/01/25 05:12:38;;;;;;;2.83;1.58;;;;;;;25.94;28.82;97918.47;4923662;28;20032;-61
2022/01/25 05:15:21;;;;;;;1.48;1.15;;;;;;;25.93;28.64;97917.59;4920828;28;20115;-59
2022/01/25 05:17:59;;;;;;;2.33;1.40;;;;;;;25.92;28.76;97917.63;4921425;28;20027;-59
2022/01/25 05:23:08;;;;;;;1.95;1.38;;;;;;;25.93;28.67;97940.38;4923210;28;20038;-60
2022/01/25 05:25:34;;;;;;;2.53;1.40;;;;;;;25.90;28.66;97935.22;4921101;28;20036;-60
2022/01/25 05:27:59;;;;;;;1.65;1.27;;;;;;;25.91;28.66;97934.31;4917158;28;20031;-59
2022/01/25 05:30:25;;;;;;;1.65;1.30;;;;;;;25.89;28.61;97929.09;4923743;28;20178;-60
2022/01/25 05:32:50;;;;;;;1.77;1.20;;;;;;;25.91;28.85;97923.81;4919391;28;20027;-59
2022/01/25 05:35:16;;;;;;;3.42;1.35;;;;;;;25.91;28.71;97929.06;4920735;28;20630;-62
2022/01/25 05:37:42;;;;;;;2.13;1.30;;;;;;;25.92;28.70;97930.78;4921056;28;20042;-60
2022/01/25 05:40:14;;;;;;;1.63;1.25;;;;;;;25.91;28.65;97936.94;4918043;28;20027;-59
2022/01/25 05:47:38;;;;;;;1.48;1.13;;;;;;;25.90;28.79;97932.59;4916803;28;20031;-60
2022/01/25 05:50:04;;;;;;;1.20;0.90;;;;;;;25.90;28.66;97932.59;4923055;28;20035;-61
2022/01/25 05:52:29;;;;;;;1.85;1.38;;;;;;;25.90;28.76;97935.22;4920080;28;20046;-60
2022/01/25 05:54:56;;;;;;;1.35;1.23;;;;;;;25.89;28.76;97931.72;4921133;28;20024;-61
2022/01/25 05:57:22;;;;;;;1.58;1.25;;;;;;;25.90;28.70;97932.59;4922082;29;20039;-60
2022/01/25 05:59:47;;;;;;;1.58;1.30;;;;;;;25.88;28.66;97929.16;4916733;28;20047;-60
2022/01/25 06:02:17;;;;;;;3.05;1.20;;;;;;;25.89;28.75;97941.41;4920647;28;20494;-60
2022/01/25 06:04:44;;;;;;;1.92;1.50;;;;;;;25.89;28.79;97941.41;4922767;28;20041;-58
2022/01/25 06:07:10;;;;;;;1.27;1.17;;;;;;;25.85;28.79;97945.88;4922358;28;20062;-60
2022/01/25 06:09:35;;;;;;;1.65;1.45;;;;;;;25.88;28.86;97947.53;4921571;28;20032;-60
2022/01/25 06:12:01;;;;;;;3.08;1.55;;;;;;;25.87;28.74;97937.97;4922788;29;20066;-58
2022/01/25 06:14:26;;;;;;;2.63;1.52;;;;;;;25.87;28.84;97943.22;4924420;28;20509;-61
2022/01/25 06:16:51;;;;;;;2.17;1.50;;;;;;;25.88;28.88;97944.91;4921895;29;20035;-61
2022/01/25 06:19:17;;;;;;;1.45;1.35;;;;;;;25.88;28.78;97944.91;4920245;29;20038;-60
2022/01/25 06:21:42;;;;;;;1.80;1.35;;;;;;;25.88;28.68;97955.41;4922401;29;20146;-60
2022/01/25 06:24:08;;;;;;;2.03;1.45;;;;;;;25.88;28.79;97944.91;4939446;28;20023;-60
2022/01/25 06:26:33;;;;;;;2.92;1.42;;;;;;;25.88;28.76;97944.91;4922734;29;20097;-59
2022/01/25 06:29:00;;;;;;;1.35;1.20;;;;;;;25.88;28.64;97947.53;4923520;28;20027;-60
2022/01/25 06:31:27;;;;;;;1.63;1.20;;;;;;;25.88;28.68;97956.28;4924159;29;20113;-60
2022/01/25 06:33:52;;;;;;;1.95;1.25;;;;;;;25.87;28.76;97959.84;4923241;29;20042;-60
2022/01/25 06:36:19;;;;;;;1.70;1.30;;;;;;;25.88;28.63;97960.66;4924653;28;20020;-58
2022/01/25 06:38:44;;;;;;;2.50;1.02;;;;;;;25.87;28.72;97964.22;4939027;28;20156;-61
2022/01/25 06:41:10;;;;;;;1.20;1.10;;;;;;;25.87;28.73;97962.47;4920713;28;20062;-59
2022/01/25 06:43:37;;;;;;;1.50;1.25;;;;;;;25.88;28.76;97971.19;4923177;29;20023;-59
2022/01/25 06:46:03;;;;;;;1.23;1.13;;;;;;;25.88;28.72;97971.19;4923651;29;20787;-61
2022/01/25 06:48:30;;;;;;;2.00;1.38;;;;;;;25.88;28.71;97972.03;4920286;29;20028;-61
2022/01/25 06:50:55;;;;;;;1.85;1.48;;;;;;;25.87;28.58;97969.47;4923027;28;20033;-61
2022/01/25 06:53:20;;;;;;;1.40;1.27;;;;;;;25.89;28.72;97972.91;4921818;29;20102;-60
2022/01/25 06:55:46;;;;;;;1.40;1.20;;;;;;;25.90;28.67;97972.84;4925055;29;20046;-60
2022/01/25 06:58:11;;;;;;;1.90;1.20;;;;;;;25.90;28.74;97985.13;4921630;28;20035;-58
2022/01/25 07:00:37;;;;;;;1.48;0.95;;;;;;;25.89;28.76;97983.41;4924661;28;20028;-60
2022/01/25 07:03:02;;;;;;;2.08;1.25;;;;;;;25.89;28.59;97983.41;4925457;28;20051;-61
2022/01/25 07:05:28;;;;;;;1.48;1.35;;;;;;;25.90;28.58;97990.38;4903205;29;20031;-60
2022/01/25 07:07:53;;;;;;;3.60;2.00;;;;;;;25.88;28.51;97987.81;4921377;29;20035;-62
2022/01/25 07:10:19;;;;;;;2.33;1.50;;;;;;;25.89;28.58;97988.66;4921017;28;20051;-59
2022/01/25 07:12:45;;;;;;;3.35;1.58;;;;;;;25.87;28.55;97993.09;4922073;28;20054;-63
2022/01/25 07:15:11;;;;;;;7.03;4.82;;;;;;;25.88;27.87;97992.19;4933549;28;20045;-59
2022/01/25 07:17:36;;;;;;;14.90;2.72;;;;;;;25.83;27.94;97985.31;4921649;28;20150;-61
2022/01/25 07:20:04;;;;;;;4.97;2.25;;;;;;;25.78;27.84;97982.00;4920820;29;20046;-60
2022/01/25 07:22:29;;;;;;;2.28;2.03;;;;;;;25.81;28.01;97992.41;4919167;28;20160;-60
2022/01/25 07:24:54;;;;;;;2.85;1.92;;;;;;;25.80;28.11;97990.69;4918096;28;20066;-59
2022/01/25 07:27:20;;;;;;;2.88;1.80;;;;;;;25.81;28.30;97988.91;4925102;28;20569;-58
2022/01/25 07:29:45;;;;;;;1.90;1.50;;;;;;;25.80;28.37;97990.69;4924528;28;20034;-59
2022/01/25 07:32:11;;;;;;;2.72;1.75;;;;;;;25.80;28.32;97990.69;4910139;28;20024;-58
2022/01/25 07:34:36;;;;;;;2.35;1.90;;;;;;;25.81;28.40;97992.41;4918270;28;20038;-60
2022/01/25 07:37:02;;;;;;;2.92;1.40;;;;;;;25.81;28.37;97996.78;4904445;28;20058;-59
2022/01/25 07:39:28;;;;;;;2.92;1.85;;;;;;;25.82;28.53;98001.16;4916390;28;20106;-57
2022/01/25 07:41:57;;;;;;;3.90;1.67;;;;;;;25.85;28.40;97994.94;4919939;28;20329;-59
2022/01/25 07:44:27;;;;;;;4.47;1.77;;;;;;;25.86;28.47;97994.03;4913230;29;20043;-59
2022/01/25 07:46:52;;;;;;;24.50;2.40;;;;;;;25.86;28.34;97986.13;4922119;29;20034;-60
2022/01/25 07:49:18;;;;;;;13.80;2.15;;;;;;;25.86;28.49;97994.03;4919622;28;20024;-58
2022/01/25 07:51:43;;;;;;;2.90;1.80;;;;;;;25.85;28.45;97981.81;4937453;28;20027;-60
2022/01/25 07:54:09;;;;;;;2.08;1.80;;;;;;;25.87;28.60;97990.47;4924833;28;20031;-59
2022/01/25 07:56:34;;;;;;;2.50;1.65;;;;;;;25.86;28.74;97994.03;4919739;28;20472;-60
2022/01/25 07:59:00;;;;;;;2.15;1.70;;;;;;;25.87;28.71;97987.84;4921212;29;20035;-59
2022/01/25 08:01:26;;;;;;;2.33;1.67;;;;;;;25.88;28.61;97986.94;4921846;28;20035;-60
2022/01/25 08:03:52;;;;;;;6.65;1.90;;;;;;;25.86;28.73;97983.50;4918603;28;20046;-58
2022/01/25 08:06:17;;;;;;;3.70;1.80;;;;;;;25.89;28.68;97984.25;4919064;28;20055;-58
2022/01/25 08:08:43;;;;;;;2.13;1.70;;;;;;;25.86;28.67;97984.38;4923969;28;20647;-60
2022/01/25 08:11:08;;;;;;;6.18;1.80;;;;;;;25.83;28.73;97982.69;4925359;29;20035;-60
2022/01/25 08:13:37;;;;;;;2.17;1.63;;;;;;;25.88;28.83;97986.94;4927483;29;20032;-60
2022/01/25 08:16:02;;;;;;;4.72;1.52;;;;;;;25.90;28.93;97993.84;4925969;29;20038;-60
2022/01/25 08:18:27;;;;;;;2.03;1.50;;;;;;;25.91;28.91;98002.59;4926050;29;20115;-60
2022/01/25 08:20:53;;;;;;;3.85;1.75;;;;;;;25.92;29.04;98001.69;4922003;28;20023;-60
2022/01/25 08:23:18;;;;;;;1.80;1.52;;;;;;;25.92;29.06;98010.44;4921871;28;20501;-59
2022/01/25 08:25:44;;;;;;;4.35;2.20;;;;;;;25.93;29.00;98006.88;4922270;29;20032;-59
2022/01/25 08:28:09;;;;;;;3.45;2.17;;;;;;;25.93;28.94;98000.78;4921127;29;21663;-59
2022/01/25 08:30:35;;;;;;;11.43;3.70;;;;;;;25.95;28.62;98012.09;4922386;28;20450;-60
2022/01/25 08:33:00;;;;;;;9.90;2.42;;;;;;;25.94;28.71;98003.34;4936283;28;20459;-59
2022/01/25 08:35:25;;;;;;;9.20;2.15;;;;;;;25.94;28.58;97997.25;4915910;29;20054;-60
2022/01/25 08:37:51;;;;;;;5.82;2.20;;;;;;;25.94;29.01;97992.00;4919971;29;20122;-60
2022/01/25 08:40:17;;;;;;;7.97;2.00;;;;;;;25.94;28.76;97992.81;4920648;28;20999;-60
2022/01/25 08:42:42;;;;;;;3.08;2.00;;;;;;;25.95;28.86;97997.19;4921156;28;20784;-60
2022/01/25 08:45:08;;;;;;;8.65;2.25;;;;;;;25.97;28.92;97989.22;4918778;28;20055;-60
2022/01/25 08:47:34;;;;;;;4.72;1.90;;;;;;;25.98;28.97;97992.72;4914272;28;20031;-60
2022/01/25 08:49:59;;;;;;;4.68;2.10;;;;;;;26.00;28.86;97983.88;4920866;29;20035;-60
2022/01/25 08:52:25;;;;;;;4.75;2.22;;;;;;;26.02;28.89;97995.22;4920339;29;20035;-61
2022/01/25 08:54:50;;;;;;;2.88;1.90;;;;;;;26.03;28.97;97991.66;4919178;28;20023;-59
2022/01/25 08:57:16;;;;;;;7.13;2.15;;;;;;;26.04;28.93;97987.25;4919828;29;20034;-60
2022/01/25 08:59:41;;;;;;;3.45;1.92;;;;;;;26.07;29.00;97993.28;4921660;28;20031;-61
2022/01/25 09:02:07;;;;;;;4.22;2.13;;;;;;;26.08;28.97;97988.84;4920797;29;20035;-60
2022/01/25 09:04:32;;;;;;;3.17;1.90;;;;;;;26.10;28.88;97993.16;4913847;29;20035;-60
2022/01/25 09:06:57;;;;;;;6.07;2.00;;;;;;;26.12;28.85;97990.47;4915630;29;20035;-58
2022/01/25 09:09:23;;;;;;;6.57;2.10;;;;;;;26.15;28.92;97987.75;4908796;29;20926;-59
2022/01/25 09:11:49;;;;;;;11.77;3.28;;;;;;;26.15;28.94;97981.63;4908757;29;20058;-63
2022/01/25 09:14:14;;;;;;;16.75;4.05;;;;;;;26.13;29.08;97981.69;4907046;28;20031;-61
2022/01/25 09:16:40;;;;;;;11.75;3.85;;;;;;;26.19;28.95;97996.38;4907619;28;20034;-61
2022/01/25 09:19:05;;;;;;;14.52;3.83;;;;;;;26.21;28.74;97999.81;4909637;29;20569;-64
2022/01/25 09:21:31;;;;;;;10.20;3.65;;;;;;;26.21;28.66;97990.13;4907913;28;20027;-61
2022/01/25 09:23:56;;;;;;;13.50;4.10;;;;;;;26.23;28.79;97992.72;4909605;28;20086;-62
2022/01/25 09:26:22;;;;;;;12.13;4.10;;;;;;;26.26;28.83;97991.78;4915950;28;20039;-60
2022/01/25 09:28:49;;;;;;;14.63;3.75;;;;;;;26.28;28.67;98001.31;4917013;29;20037;-61
2022/01/25 09:31:16;;;;;;;10.00;3.75;;;;;;;26.29;28.77;97997.81;4928453;29;20714;-61
2022/01/25 09:33:41;;;;;;;13.80;4.25;;;;;;;26.30;28.63;97994.25;4922087;29;20085;-61
2022/01/25 09:36:07;;;;;;;8.98;4.15;;;;;;;26.33;28.62;97988.03;4918983;28;20045;-62
2022/01/25 09:38:32;;;;;;;17.00;3.95;;;;;;;26.35;28.78;97992.31;4918434;28;20050;-61
2022/01/25 09:40:58;;;;;;;15.82;4.40;;;;;;;26.38;28.72;97987.88;4917099;28;20027;-61
2022/01/25 09:43:24;;;;;;;10.13;3.88;;;;;;;26.40;28.53;97989.53;4918604;29;20031;-63
2022/01/25 09:45:50;;;;;;;15.55;3.58;;;;;;;26.42;28.21;97998.19;4918124;28;20023;-62
2022/01/25 09:48:15;;;;;;;12.93;4.30;;;;;;;26.43;28.42;97988.56;4915492;28;20054;-62
2022/01/25 09:50:41;;;;;;;9.27;3.67;;;;;;;26.44;28.42;97990.25;4920337;28;20085;-61
2022/01/25 09:53:06;;;;;;;10.80;3.83;;;;;;;26.45;28.50;97989.34;4917705;29;20028;-59
2022/01/25 09:55:35;;;;;;;10.18;3.42;;;;;;;26.47;28.38;97987.53;4921869;29;20035;-62
2022/01/25 09:58:02;;;;;;;16.20;3.65;;;;;;;26.48;28.36;97982.19;4919015;29;20023;-61
2022/01/25 10:00:29;;;;;;;11.65;3.63;;;;;;;26.50;28.33;97995.28;4920548;28;20031;-62
2022/01/25 10:05:36;;;;;;;9.88;3.92;;;;;;;26.54;28.25;97980.28;4916474;28;20149;-62
2022/01/25 10:08:01;;;;;;;10.57;3.25;;;;;;;26.55;28.27;97981.97;4923911;29;20089;-60
2022/01/25 10:10:28;;;;;;;24.40;3.60;;;;;;;26.55;28.23;97977.56;4920002;28;20394;-60
2022/01/25 10:13:15;;;;;;;7.35;3.00;;;;;;;26.57;28.20;97977.50;4922520;28;20907;-60
2022/01/25 10:15:41;;;;;;;9.43;3.58;;;;;;;26.59;28.22;97978.31;4914956;29;20907;-60
2022/01/25 10:18:06;;;;;;;8.35;2.90;;;;;;;26.58;28.11;97969.56;4923591;28;20038;-60
2022/01/25 10:20:36;;;;;;;7.15;2.70;;;;;;;26.58;28.20;97969.56;4918528;28;20035;-60
2022/01/25 10:23:11;;;;;;;8.43;3.20;;;;;;;26.59;28.20;97971.28;4921779;29;20035;-60
2022/01/25 10:25:45;;;;;;;7.80;3.03;;;;;;;26.59;28.14;97968.66;4917262;28;20090;-60
2022/01/25 10:28:12;;;;;;;8.00;2.80;;;;;;;26.61;28.28;97966.84;4920819;28;20028;-60
2022/01/25 10:31:01;;;;;;;8.82;2.42;;;;;;;26.61;28.31;97969.47;4913695;28;20035;-60
2022/01/25 10:33:32;;;;;;;6.53;2.65;;;;;;;26.60;28.32;97964.25;4913060;28;23014;-60
2022/01/25 10:36:22;;;;;;;7.43;3.13;;;;;;;26.61;28.40;97963.34;4917308;28;20023;-59
2022/01/25 10:38:49;;;;;;;8.55;3.08;;;;;;;26.63;28.34;97964.16;4911550;29;20283;-58
2022/01/25 10:41:20;;;;;;;5.68;2.72;;;;;;;26.64;28.29;97972.88;4911274;28;20035;-60
2022/01/25 10:43:47;;;;;;;7.38;2.40;;;;;;;26.64;28.37;97975.50;4927121;28;20034;-61
2022/01/25 10:46:23;;;;;;;6.80;3.03;;;;;;;26.65;28.24;97977.25;4914816;28;20047;-60
2022/01/25 10:48:54;;;;;;;5.20;2.60;;;;;;;26.64;28.38;97981.63;4921473;28;20066;-59
2022/01/25 10:51:25;;;;;;;5.55;2.80;;;;;;;26.65;28.45;97971.97;4912639;29;20102;-61
2022/01/25 10:54:05;;;;;;;5.65;2.90;;;;;;;26.64;28.37;97976.38;4912223;29;20059;-60
2022/01/25 10:56:50;;;;;;;9.00;3.33;;;;;;;26.64;28.45;97973.75;4911881;29;20110;-62
2022/01/25 10:59:23;;;;;;;6.18;2.53;;;;;;;26.64;28.58;97970.25;4929658;28;20110;-61
2022/01/25 11:01:52;;;;;;;4.40;2.30;;;;;;;26.64;28.58;97972.88;4914234;29;20031;-61
2022/01/25 11:04:18;;;;;;;6.20;2.42;;;;;;;26.65;28.65;97966.72;4913978;28;20848;-58
2022/01/25 11:06:44;;;;;;;4.18;2.47;;;;;;;26.66;28.61;97968.44;4917821;28;20032;-61
2022/01/25 11:09:12;;;;;;;7.18;2.38;;;;;;;26.65;28.76;97966.72;4919600;29;20020;-60
2022/01/25 11:11:44;;;;;;;5.35;2.33;;;;;;;26.65;28.86;97961.47;4917342;29;23102;-61
2022/01/25 11:16:54;;;;;;;6.20;2.42;;;;;;;26.65;29.03;97961.47;4919498;29;20039;-61
2022/01/25 11:19:21;;;;;;;6.00;2.35;;;;;;;26.63;28.99;97958.88;4921162;29;20035;-60
2022/01/25 11:21:47;;;;;;;6.70;2.70;;;;;;;26.63;29.09;97955.38;4922062;29;20023;-59
2022/01/25 11:24:13;;;;;;;5.22;2.15;;;;;;;26.66;29.09;97960.53;4924543;29;20038;-60
2022/01/25 11:26:40;;;;;;;9.07;2.40;;;;;;;26.65;29.04;97953.56;4915199;28;20067;-60
2022/01/25 11:29:06;;;;;;;4.15;2.35;;;;;;;26.65;29.15;97956.22;4918695;28;20461;-62
2022/01/25 11:31:31;;;;;;;4.18;2.10;;;;;;;26.67;29.26;97949.09;4923377;29;20050;-60
2022/01/25 11:33:57;;;;;;;5.57;2.00;;;;;;;26.66;29.32;97952.66;4919612;29;20842;-60
2022/01/25 11:36:22;;;;;;;6.28;1.90;;;;;;;26.67;29.33;97949.09;4917712;29;20038;-60
2022/01/25 11:38:50;;;;;;;5.20;2.00;;;;;;;26.66;29.52;97936.88;4934008;28;20783;-59
2022/01/25 11:41:17;;;;;;;5.05;2.20;;;;;;;26.66;29.47;97935.09;4917432;29;23218;-59
2022/01/25 11:43:44;;;;;;;3.47;1.85;;;;;;;26.68;29.65;97940.28;4918111;28;20050;-61
2022/01/25 11:46:10;;;;;;;7.35;2.38;;;;;;;26.67;29.55;97934.19;4922284;29;20023;-61
2022/01/25 11:48:43;;;;;;;4.85;2.30;;;;;;;26.67;29.75;97936.81;4923154;28;20564;-60
2022/01/25 11:51:17;;;;;;;4.53;2.00;;;;;;;26.68;29.69;97935.03;4920553;28;20115;-58
2022/01/25 11:53:44;;;;;;;4.75;1.90;;;;;;;26.69;29.88;97936.78;4922504;28;20047;-59
2022/01/25 11:56:10;;;;;;;5.22;1.85;;;;;;;26.69;30.03;97936.78;4926472;28;20679;-60
2022/01/25 11:58:36;;;;;;;4.30;1.95;;;;;;;26.68;29.79;97940.28;4921599;29;20042;-60
2022/01/25 12:01:23;;;;;;;3.67;2.03;;;;;;;26.70;29.87;97943.72;4924431;28;20839;-61
2022/01/25 12:03:59;;;;;;;3.70;1.73;;;;;;;26.69;29.92;97936.78;4925281;29;20043;-59
2022/01/25 12:06:28;;;;;;;4.97;1.83;;;;;;;26.70;29.95;97930.59;4926519;29;20038;-60
2022/01/25 12:09:17;;;;;;;6.00;1.80;;;;;;;26.69;29.91;97931.50;4915530;29;20134;-58
2022/01/25 12:11:47;;;;;;;7.10;2.10;;;;;;;26.70;29.93;97930.59;4916869;28;20036;-61
2022/01/25 12:14:22;;;;;;;4.85;2.08;;;;;;;26.71;29.93;97935.78;4917829;29;20505;-58
2022/01/25 12:16:53;;;;;;;4.05;2.20;;;;;;;26.70;29.90;97934.06;4921422;29;20032;-61
2022/01/25 12:19:47;;;;;;;4.38;1.83;;;;;;;26.71;29.96;97929.66;4916429;28;20483;-59
2022/01/25 12:22:26;;;;;;;3.72;1.73;;;;;;;26.70;30.03;97928.78;4907501;28;20507;-60
2022/01/25 12:25:16;;;;;;;3.45;1.75;;;;;;;26.72;30.05;97931.38;4909656;28;20028;-60
2022/01/25 12:27:55;;;;;;;5.60;1.90;;;;;;;26.72;29.93;97926.09;4903890;29;20047;-58
2022/01/25 12:30:20;;;;;;;4.07;1.98;;;;;;;26.72;29.81;97916.47;4907934;28;20071;-60
2022/01/25 12:33:02;;;;;;;3.35;1.80;;;;;;;26.73;30.00;97918.16;4912032;29;20200;-60
2022/01/25 12:35:59;;;;;;;4.30;1.70;;;;;;;26.74;29.93;97919.03;4908163;29;20740;-61
2022/01/25 12:38:43;;;;;;;2.40;1.65;;;;;;;26.74;29.97;97916.41;4907222;28;20980;-60
2022/01/25 12:41:15;;;;;;;4.97;2.13;;;;;;;26.72;29.53;97905.94;4915053;28;20031;-58
2022/01/25 12:43:50;;;;;;;2.67;1.60;;;;;;;26.73;29.17;97912.03;4909345;28;20212;-59
2022/01/25 12:46:20;;;;;;;3.78;1.75;;;;;;;26.72;29.54;97910.34;4911778;29;20028;-60
2022/01/25 12:48:48;;;;;;;3.40;2.05;;;;;;;26.70;29.60;97918.28;4908198;29;20155;-60
2022/01/25 12:51:21;;;;;;;4.28;2.00;;;;;;;26.69;29.74;97913.09;4917475;28;20717;-60
2022/01/25 12:53:49;;;;;;;4.47;2.20;;;;;;;26.69;29.68;97911.31;4908681;28;20101;-58
2022/01/25 12:56:16;;;;;;;3.88;1.70;;;;;;;26.69;29.96;97913.09;4920753;29;20031;-61
2022/01/25 12:58:42;;;;;;;3.55;1.65;;;;;;;26.69;29.78;97907.84;4911356;29;20083;-60
2022/01/25 13:01:12;;;;;;;2.33;1.50;;;;;;;26.68;29.82;97903.47;4910411;28;20031;-60
2022/01/25 13:03:43;;;;;;;1.75;1.20;;;;;;;26.69;29.84;97907.84;4923019;28;20031;-60
2022/01/25 13:06:09;;;;;;;5.22;1.50;;;;;;;26.69;29.89;97906.06;4909475;29;20058;-59
2022/01/25 13:08:42;;;;;;;3.03;1.45;;;;;;;26.70;29.89;97896.41;4910427;29;21983;-60
2022/01/25 13:11:20;;;;;;;3.15;1.60;;;;;;;26.70;29.97;97899.88;4911665;28;20174;-61
2022/01/25 13:16:51;;;;;;;3.63;1.88;;;;;;;26.72;29.87;97911.19;4912490;28;20118;-60
2022/01/25 13:19:19;;;;;;;5.03;1.90;;;;;;;26.72;29.88;97895.44;4921120;28;21712;-60
2022/01/25 13:21:48;;;;;;;7.28;1.45;;;;;;;26.73;29.90;97899.75;4912584;29;20098;-60
2022/01/25 13:24:16;;;;;;;4.43;1.92;;;;;;;26.74;29.95;97898.84;4910260;29;20158;-60
2022/01/25 13:26:55;;;;;;;2.25;1.42;;;;;;;26.75;29.92;97899.69;4910267;29;20106;-58
2022/01/25 13:32:12;;;;;;;2.45;1.50;;;;;;;26.76;29.89;97900.56;4924399;28;20850;-61
2022/01/25 13:34:38;;;;;;;2.88;1.20;;;;;;;26.76;29.92;97898.78;4912607;29;20035;-59
2022/01/25 13:37:03;;;;;;;2.90;1.50;;;;;;;26.75;29.96;97899.69;4909654;29;20042;-58